This is the latest recevied weather packets stored in our database for station/object K0APR. If no packets are shown the sender has not sent any weather packets the latest 10 day(s).
| Time | Temp. | Humidity | Pressure | Rain* | Wind** | Luminosity | Snow |
|---|---|---|---|---|---|---|---|
| 1777672077 | 11.11° C | 42% | 1019.3 hPa | 0 mm | - | 152 W/m² | - |
| 1777671773 | 11.11° C | 44% | 1019 hPa | 0 mm | - | 139 W/m² | - |
| 1777671469 | 11.11° C | 45% | 1019.3 hPa | 0 mm | - | 109 W/m² | - |
| 1777671166 | 11.11° C | 44% | 1019.3 hPa | 0 mm | - | 416 W/m² | - |
| 1777670862 | 11.11° C | 42% | 1019.3 hPa | 0 mm | - | 555 W/m² | - |
| 1777670558 | 10° C | 43% | 1019.3 hPa | 0 mm | - | 551 W/m² | - |
| 1777670256 | 10° C | 43% | 1019.3 hPa | 0 mm | - | 125 W/m² | - |
| 1777669953 | 10° C | 45% | 1019.6 hPa | 0 mm | - | 111 W/m² | - |
| 1777669650 | 10° C | 45% | 1019.3 hPa | 0 mm | - | 127 W/m² | - |
| 1777669346 | 10° C | 45% | 1019.6 hPa | 0 mm | - | 284 W/m² | - |
| 1777669043 | 10° C | 45% | 1019.6 hPa | 0 mm | - | 140 W/m² | - |
| 1777668740 | 10.56° C | 44% | 1019.3 hPa | 0 mm | - | 152 W/m² | - |
| 1777668437 | 11.11° C | 45% | 1019.6 hPa | 0 mm | - | 164 W/m² | - |
| 1777668134 | 11.11° C | 43% | 1019.3 hPa | 0 mm | - | 161 W/m² | - |
| 1777667830 | 10.56° C | 46% | 1019.6 hPa | 0 mm | - | 167 W/m² | - |
| 1777667527 | 10.56° C | 45% | 1019.6 hPa | 0 mm | - | 293 W/m² | - |
| 1777667224 | 10.56° C | 45% | 1019.6 hPa | 0 mm | - | 536 W/m² | - |
| 1777666921 | 10° C | 46% | 1019.6 hPa | 0 mm | - | 208 W/m² | - |
| 1777666618 | 10° C | 45% | 1019.6 hPa | 0 mm | - | 613 W/m² | - |
| 1777666314 | 10° C | 50% | 1020 hPa | 0 mm | - | 83 W/m² | - |
| 1777666011 | 9.44° C | 48% | 1019.6 hPa | 0 mm | - | 88 W/m² | - |
| 1777665709 | 9.44° C | 48% | 1019.6 hPa | 0 mm | - | 133 W/m² | - |
| 1777665406 | 9.44° C | 46% | 1019.6 hPa | 0 mm | - | 752 W/m² | - |
| 1777665101 | 10° C | 48% | 1019.6 hPa | 0 mm | - | 175 W/m² | - |
| 1777664797 | 10° C | 46% | 1020 hPa | 0 mm | - | 310 W/m² | - |
* Rain latest hour (hover to see other rain measurements)
** Current wind speed in m/s (hover to see current wind gust speed)